createdAt,value
2019-05-03T00:00:25.951Z,12.00
2019-05-03T00:02:52.326Z,12.00
2019-05-03T00:05:18.693Z,12.00
2019-05-03T00:07:44.960Z,12.00
2019-05-03T00:10:12.840Z,11.90
2019-05-03T00:12:39.275Z,11.90
2019-05-03T00:15:05.575Z,12.00
2019-05-03T00:17:32.458Z,12.00
2019-05-03T00:19:58.947Z,12.00
2019-05-03T00:22:25.253Z,12.00
2019-05-03T00:25:03.130Z,12.00
2019-05-03T00:27:21.608Z,12.00
2019-05-03T00:29:47.634Z,12.00
2019-05-03T00:32:13.888Z,11.90
2019-05-03T00:34:41.820Z,11.90
2019-05-03T00:37:08.229Z,11.90
2019-05-03T00:39:34.483Z,11.90
2019-05-03T00:42:02.623Z,11.90
2019-05-03T00:44:28.757Z,11.90
2019-05-03T00:46:55.108Z,11.90
2019-05-03T00:49:22.611Z,11.90
2019-05-03T00:51:49.126Z,11.90
2019-05-03T00:54:15.390Z,11.80
2019-05-03T00:56:44.134Z,11.90
2019-05-03T00:59:09.654Z,11.80
2019-05-03T01:01:35.931Z,11.80
2019-05-03T01:04:02.187Z,11.80
2019-05-03T01:06:28.481Z,11.80
2019-05-03T01:08:54.851Z,11.80
2019-05-03T01:11:22.254Z,11.70
2019-05-03T01:13:48.870Z,11.70
2019-05-03T01:16:15.167Z,11.60
2019-05-03T01:18:41.820Z,11.70
2019-05-03T01:21:08.186Z,11.60
2019-05-03T01:23:34.439Z,11.50
2019-05-03T01:26:02.389Z,11.60
2019-05-03T01:28:28.921Z,11.50
2019-05-03T01:30:55.222Z,11.50
2019-05-03T01:33:22.636Z,11.40
2019-05-03T01:35:49.137Z,11.40
2019-05-03T01:38:15.428Z,11.30
2019-05-03T01:40:41.973Z,11.30
2019-05-03T01:43:08.481Z,11.30
2019-05-03T01:45:34.894Z,11.20
2019-05-03T01:48:02.048Z,11.20
2019-05-03T01:50:28.349Z,11.10
2019-05-03T01:52:54.645Z,11.10
2019-05-03T01:55:22.655Z,11.10
2019-05-03T01:57:49.048Z,11.10
2019-05-03T02:00:15.319Z,11.10
2019-05-03T02:02:42.009Z,11.00
2019-05-03T02:05:08.465Z,10.90
2019-05-03T02:07:34.749Z,10.90
2019-05-03T02:10:02.775Z,10.90
2019-05-03T02:12:29.222Z,10.80
2019-05-03T02:14:55.529Z,10.80
2019-05-03T02:17:22.626Z,10.70
2019-05-03T02:19:49.024Z,10.60
2019-05-03T02:22:15.288Z,10.60
2019-05-03T02:24:42.217Z,10.60
2019-05-03T02:27:08.711Z,10.60
2019-05-03T02:29:35.135Z,10.60
2019-05-03T02:32:03.345Z,10.50
2019-05-03T02:34:32.460Z,10.50
2019-05-03T02:36:57.545Z,10.50
2019-05-03T02:39:24.053Z,10.60
2019-05-03T02:41:55.265Z,10.50
2019-05-03T02:44:18.294Z,10.50
2019-05-03T02:46:45.383Z,10.50
2019-05-03T02:49:11.807Z,10.40
2019-05-03T02:51:38.099Z,10.50
2019-05-03T02:54:05.575Z,10.50
2019-05-03T02:56:32.050Z,10.50
2019-05-03T02:58:58.340Z,10.50
2019-05-03T03:01:26.392Z,10.50
2019-05-03T03:03:52.687Z,10.50
2019-05-03T03:06:18.934Z,10.50
2019-05-03T03:08:45.562Z,10.50
2019-05-03T03:11:12.051Z,10.50
2019-05-03T03:13:38.314Z,10.50
2019-05-03T03:16:06.679Z,10.50
2019-05-03T03:18:32.563Z,10.50
2019-05-03T03:20:58.854Z,10.50
2019-05-03T03:23:26.251Z,10.50
2019-05-03T03:25:55.641Z,10.50
2019-05-03T03:28:20.862Z,10.50
2019-05-03T03:30:48.594Z,10.50
2019-05-03T03:33:17.518Z,10.50
2019-05-03T03:35:48.436Z,10.50
2019-05-03T03:38:11.543Z,10.50
2019-05-03T03:40:37.828Z,10.50
2019-05-03T03:43:05.345Z,10.40
2019-05-03T03:45:31.923Z,10.40
2019-05-03T03:47:58.208Z,10.40
2019-05-03T03:50:25.903Z,10.40
2019-05-03T03:52:52.521Z,10.40
2019-05-03T03:55:18.771Z,10.40
2019-05-03T03:57:46.745Z,10.40
2019-05-03T04:00:13.067Z,10.40
2019-05-03T04:02:39.370Z,10.30
2019-05-03T04:05:05.736Z,10.30
2019-05-03T04:07:32.072Z,10.40
2019-05-03T04:09:58.375Z,10.40
2019-05-03T04:12:26.595Z,10.40
2019-05-03T04:14:52.705Z,10.30
2019-05-03T04:17:18.974Z,10.30
2019-05-03T04:19:45.590Z,10.20
2019-05-03T04:22:12.000Z,10.30
2019-05-03T04:24:38.266Z,10.30
2019-05-03T04:27:15.592Z,10.30
2019-05-03T04:29:32.590Z,10.30
2019-05-03T04:31:58.852Z,10.30
2019-05-03T04:34:26.341Z,10.30
2019-05-03T04:36:55.347Z,10.30
2019-05-03T04:39:20.876Z,10.30
2019-05-03T04:41:47.145Z,10.30
2019-05-03T04:44:15.497Z,10.30
2019-05-03T04:46:41.788Z,10.30
2019-05-03T04:49:08.095Z,10.30
2019-05-03T04:51:35.063Z,10.30
2019-05-03T04:54:01.632Z,10.40
2019-05-03T04:56:27.895Z,10.40
2019-05-03T04:58:55.927Z,10.40
2019-05-03T05:01:22.434Z,10.40
2019-05-03T05:03:48.762Z,10.40
2019-05-03T05:06:15.567Z,10.30
2019-05-03T05:08:42.003Z,10.40
2019-05-03T05:11:10.530Z,10.40
2019-05-03T05:13:36.322Z,10.40
2019-05-03T05:16:02.682Z,10.40
2019-05-03T05:18:30.121Z,10.50
2019-05-03T05:20:56.427Z,10.50
2019-05-03T05:23:22.670Z,10.50
2019-05-03T05:25:48.984Z,10.60
2019-05-03T05:28:15.258Z,10.70
2019-05-03T05:30:41.545Z,10.60
2019-05-03T05:33:07.804Z,10.50
2019-05-03T05:35:35.233Z,10.60
2019-05-03T05:38:01.676Z,10.60
2019-05-03T05:40:27.967Z,10.60
2019-05-03T05:42:54.614Z,10.60
2019-05-03T05:45:21.061Z,10.70
2019-05-03T05:47:47.322Z,10.80
2019-05-03T05:50:14.870Z,10.80
2019-05-03T05:52:41.400Z,10.90
2019-05-03T05:55:12.319Z,11.00
2019-05-03T05:57:39.167Z,11.10
2019-05-03T06:00:05.479Z,11.20
2019-05-03T06:02:31.906Z,11.20
2019-05-03T06:04:58.186Z,11.10
2019-05-03T06:07:24.888Z,11.20
2019-05-03T06:09:51.550Z,11.20
2019-05-03T06:12:17.988Z,11.20
2019-05-03T06:14:45.313Z,11.00
2019-05-03T06:17:11.785Z,11.10
2019-05-03T06:19:38.047Z,11.10
2019-05-03T06:22:05.112Z,11.10
2019-05-03T06:24:31.511Z,11.00
2019-05-03T06:26:57.803Z,11.00
2019-05-03T06:29:24.780Z,10.90
2019-05-03T06:31:51.341Z,10.80
2019-05-03T06:34:17.612Z,10.80
2019-05-03T06:36:44.295Z,10.70
2019-05-03T06:39:10.713Z,10.60
2019-05-03T06:41:37.000Z,10.60
2019-05-03T06:44:04.358Z,10.70
2019-05-03T06:46:31.518Z,10.70
2019-05-03T06:49:01.124Z,10.80
2019-05-03T06:51:26.095Z,10.90
2019-05-03T06:53:52.398Z,10.90
2019-05-03T06:56:19.269Z,10.90
2019-05-03T06:58:46.662Z,10.90
2019-05-03T07:01:14.778Z,10.90
2019-05-03T07:03:41.190Z,10.90
2019-05-03T07:06:07.470Z,10.90
2019-05-03T07:08:34.454Z,10.90
2019-05-03T07:11:00.927Z,10.90
2019-05-03T07:13:27.347Z,10.90
2019-05-03T07:15:55.895Z,10.90
2019-05-03T07:18:21.796Z,11.00
2019-05-03T07:20:48.025Z,11.30
2019-05-03T07:23:15.637Z,11.60
2019-05-03T07:25:42.160Z,11.80
2019-05-03T07:28:08.455Z,11.70
2019-05-03T07:30:36.947Z,11.60
2019-05-03T07:33:04.743Z,11.50
2019-05-03T07:35:32.947Z,11.40
2019-05-03T07:37:59.230Z,11.40
2019-05-03T07:40:25.603Z,11.60
2019-05-03T07:42:52.071Z,12.00
2019-05-03T07:45:18.350Z,13.00
2019-05-03T07:47:45.214Z,14.10
2019-05-03T07:50:11.642Z,14.80
2019-05-03T07:52:37.894Z,15.70
2019-05-03T07:55:04.666Z,16.60
2019-05-03T07:57:31.031Z,16.70
2019-05-03T08:00:09.213Z,16.20
2019-05-03T08:02:35.912Z,15.70
2019-05-03T08:05:02.516Z,15.20
2019-05-03T08:07:28.804Z,15.00
2019-05-03T08:09:55.543Z,15.00
2019-05-03T08:12:22.022Z,15.00
2019-05-03T08:14:48.307Z,14.50
2019-05-03T08:17:15.267Z,14.60
2019-05-03T08:19:41.638Z,14.70
2019-05-03T08:22:07.897Z,15.10
2019-05-03T08:24:34.688Z,15.20
2019-05-03T08:27:01.084Z,15.40
2019-05-03T08:29:27.659Z,15.60
2019-05-03T08:31:54.547Z,15.80
2019-05-03T08:34:21.134Z,15.40
2019-05-03T08:36:47.423Z,15.40
2019-05-03T08:39:15.757Z,15.60
2019-05-03T08:41:41.732Z,15.70
2019-05-03T08:44:07.997Z,15.80
2019-05-03T08:46:35.593Z,16.00
2019-05-03T08:49:02.033Z,16.10
2019-05-03T08:51:28.317Z,16.30
2019-05-03T08:53:56.021Z,16.30
2019-05-03T08:56:24.463Z,15.70
2019-05-03T08:58:50.471Z,15.50
2019-05-03T09:01:16.775Z,15.30
2019-05-03T09:03:43.065Z,15.40
2019-05-03T09:06:09.404Z,15.40
2019-05-03T09:08:35.663Z,15.70
2019-05-03T09:11:02.119Z,15.60
2019-05-03T09:13:28.390Z,15.50
2019-05-03T09:15:55.241Z,15.40
2019-05-03T09:18:21.737Z,15.70
2019-05-03T09:20:47.994Z,16.00
2019-05-03T09:23:14.904Z,16.30
2019-05-03T09:25:41.331Z,16.40
2019-05-03T09:28:07.582Z,16.50
2019-05-03T09:30:35.738Z,16.70
2019-05-03T09:33:02.229Z,16.70
2019-05-03T09:35:32.858Z,16.80
2019-05-03T09:37:56.462Z,16.50
2019-05-03T09:40:24.482Z,16.20
2019-05-03T09:42:50.738Z,15.90
2019-05-03T09:45:16.999Z,15.50
2019-05-03T09:47:44.803Z,15.10
2019-05-03T09:50:11.338Z,14.90
2019-05-03T09:52:37.633Z,14.80
2019-05-03T09:55:05.257Z,14.90
2019-05-03T09:57:31.766Z,14.60
2019-05-03T10:00:00.071Z,14.50
2019-05-03T10:02:26.031Z,14.50
2019-05-03T10:04:52.291Z,14.30
2019-05-03T10:07:18.564Z,14.20
2019-05-03T10:09:45.168Z,14.00
2019-05-03T10:12:11.620Z,14.00
2019-05-03T10:14:37.936Z,13.90
2019-05-03T10:17:05.346Z,13.80
2019-05-03T10:19:39.742Z,13.70
2019-05-03T10:21:59.902Z,13.80
2019-05-03T10:24:26.186Z,13.80
2019-05-03T10:26:52.491Z,13.90
2019-05-03T10:29:18.799Z,13.90
2019-05-03T10:31:45.034Z,13.80
2019-05-03T10:34:11.325Z,13.80
2019-05-03T10:36:37.606Z,13.70
2019-05-03T10:39:04.813Z,13.60
2019-05-03T10:41:31.242Z,13.60
2019-05-03T10:43:57.503Z,13.60
2019-05-03T10:46:25.058Z,13.60
2019-05-03T10:48:51.806Z,13.60
2019-05-03T10:51:18.081Z,13.60
2019-05-03T10:53:45.466Z,13.60
2019-05-03T10:56:13.884Z,13.60
2019-05-03T10:58:39.938Z,13.70
2019-05-03T11:01:06.241Z,13.90
2019-05-03T11:03:34.046Z,14.00
2019-05-03T11:06:00.701Z,14.10
2019-05-03T11:08:26.951Z,14.10
2019-05-03T11:10:54.891Z,13.90
2019-05-03T11:13:21.246Z,13.90
2019-05-03T11:15:47.540Z,14.00
2019-05-03T11:18:14.713Z,14.00
2019-05-03T11:20:41.207Z,14.00
2019-05-03T11:23:07.475Z,13.90
2019-05-03T11:25:34.464Z,13.90
2019-05-03T11:28:00.877Z,13.90
2019-05-03T11:30:27.171Z,13.90
2019-05-03T11:32:55.470Z,13.90
2019-05-03T11:35:21.502Z,13.90
2019-05-03T11:37:47.824Z,13.90
2019-05-03T11:40:15.723Z,14.00
2019-05-03T11:42:42.364Z,14.30
2019-05-03T11:45:08.671Z,14.60
2019-05-03T11:47:34.947Z,14.80
2019-05-03T11:50:01.238Z,15.00
2019-05-03T11:52:27.507Z,15.20
2019-05-03T11:54:55.294Z,15.40
2019-05-03T11:57:21.805Z,15.60
2019-05-03T11:59:48.072Z,15.80
2019-05-03T12:02:15.337Z,15.70
2019-05-03T12:04:41.795Z,15.50
2019-05-03T12:07:08.113Z,15.50
2019-05-03T12:09:34.347Z,15.20
2019-05-03T12:12:00.615Z,15.20
2019-05-03T12:14:26.886Z,15.00
2019-05-03T12:17:14.610Z,15.00
2019-05-03T12:19:26.214Z,15.10
2019-05-03T12:21:49.633Z,15.30
2019-05-03T12:24:17.051Z,15.50
2019-05-03T12:26:46.785Z,15.70
2019-05-03T12:29:11.755Z,15.90
2019-05-03T12:31:40.639Z,16.00
2019-05-03T12:34:06.164Z,15.90
2019-05-03T12:36:35.962Z,15.70
2019-05-03T12:39:00.581Z,15.60
2019-05-03T12:41:26.850Z,15.50
2019-05-03T12:43:55.038Z,15.50
2019-05-03T12:46:21.119Z,15.40
2019-05-03T12:48:47.423Z,15.40
2019-05-03T12:51:15.223Z,15.20
2019-05-03T12:53:41.734Z,15.20
2019-05-03T12:56:11.619Z,15.00
2019-05-03T12:58:36.055Z,14.90
2019-05-03T13:01:02.339Z,14.80
2019-05-03T13:03:28.619Z,14.80
2019-05-03T13:05:55.594Z,14.80
2019-05-03T13:08:22.065Z,14.80
2019-05-03T13:10:48.551Z,14.80
2019-05-03T13:13:14.874Z,14.80
2019-05-03T13:15:41.131Z,14.80
2019-05-03T13:18:07.407Z,14.80
2019-05-03T13:20:35.870Z,14.90
2019-05-03T13:23:01.673Z,15.00
2019-05-03T13:25:27.956Z,15.00
2019-05-03T13:27:54.782Z,14.90
2019-05-03T13:30:21.177Z,14.90
2019-05-03T13:32:47.449Z,14.90
2019-05-03T13:35:15.074Z,15.10
2019-05-03T13:37:41.542Z,15.10
2019-05-03T13:40:07.957Z,15.00
2019-05-03T13:42:35.094Z,15.00
2019-05-03T13:45:01.576Z,14.90
2019-05-03T13:47:27.858Z,14.80
2019-05-03T13:49:55.210Z,14.80
2019-05-03T13:52:21.662Z,14.70
2019-05-03T13:54:47.984Z,14.70
2019-05-03T13:57:15.423Z,14.70
2019-05-03T13:59:41.938Z,14.70
2019-05-03T14:02:15.115Z,14.80
2019-05-03T14:04:49.315Z,15.00
2019-05-03T14:07:04.675Z,15.20
2019-05-03T14:09:31.082Z,15.40
2019-05-03T14:11:57.407Z,15.60
2019-05-03T14:14:25.700Z,15.70
2019-05-03T14:16:51.673Z,15.70
2019-05-03T14:19:17.940Z,15.80
2019-05-03T14:21:44.205Z,15.80
2019-05-03T14:24:10.490Z,16.00
2019-05-03T14:26:36.771Z,16.20
2019-05-03T14:29:03.012Z,16.20
2019-05-03T14:31:29.301Z,16.10
2019-05-03T14:33:56.015Z,16.00
2019-05-03T14:36:22.350Z,15.90
2019-05-03T14:38:48.627Z,16.00
2019-05-03T14:41:15.165Z,16.10
2019-05-03T14:43:41.552Z,16.10
2019-05-03T14:46:07.875Z,16.10
2019-05-03T14:48:35.124Z,15.90
2019-05-03T14:51:01.554Z,15.90
2019-05-03T14:53:27.799Z,15.80
2019-05-03T14:55:54.142Z,15.70
2019-05-03T14:58:20.435Z,15.50
2019-05-03T15:00:46.695Z,15.50
2019-05-03T15:03:14.998Z,15.60
2019-05-03T15:05:40.981Z,15.50
2019-05-03T15:08:07.252Z,15.50
2019-05-03T15:10:35.057Z,15.30
2019-05-03T15:13:01.578Z,15.20
2019-05-03T15:15:28.918Z,15.00
2019-05-03T15:17:55.515Z,14.90
2019-05-03T15:20:21.767Z,14.80
2019-05-03T15:22:48.079Z,14.60
2019-05-03T15:25:14.415Z,14.60
2019-05-03T15:27:40.981Z,14.60
2019-05-03T15:30:07.265Z,14.60
2019-05-03T15:32:35.343Z,14.60
2019-05-03T15:35:01.609Z,14.60
2019-05-03T15:37:27.890Z,14.40
2019-05-03T15:39:54.660Z,14.40
2019-05-03T15:42:21.274Z,14.40
2019-05-03T15:44:47.603Z,14.40
2019-05-03T15:47:14.793Z,14.40
2019-05-03T15:49:41.231Z,14.40
2019-05-03T15:52:07.492Z,14.40
2019-05-03T15:54:35.329Z,14.40
2019-05-03T15:57:01.762Z,14.30
2019-05-03T15:59:28.031Z,14.40
2019-05-03T16:01:55.315Z,14.40
2019-05-03T16:04:21.781Z,14.50
2019-05-03T16:06:48.059Z,14.40
2019-05-03T16:09:16.423Z,14.50
2019-05-03T16:11:42.679Z,14.50
2019-05-03T16:14:08.990Z,14.60
2019-05-03T16:16:35.434Z,14.60
2019-05-03T16:19:01.934Z,14.70
2019-05-03T16:21:28.182Z,14.60
2019-05-03T16:23:55.519Z,14.50
2019-05-03T16:26:22.008Z,14.50
2019-05-03T16:28:48.309Z,14.40
2019-05-03T16:31:14.601Z,14.30
2019-05-03T16:33:40.898Z,14.30
2019-05-03T16:36:07.188Z,14.20
2019-05-03T16:38:35.268Z,14.20
2019-05-03T16:41:01.479Z,14.20
2019-05-03T16:43:27.741Z,14.20
2019-05-03T16:45:55.147Z,14.10
2019-05-03T16:48:21.638Z,14.10
2019-05-03T16:50:47.934Z,14.10
2019-05-03T16:53:14.761Z,14.00
2019-05-03T16:55:41.399Z,14.00
2019-05-03T16:58:07.692Z,13.90
2019-05-03T17:00:35.285Z,13.80
2019-05-03T17:03:01.741Z,13.80
2019-05-03T17:05:28.041Z,13.70
2019-05-03T17:07:54.334Z,13.70
2019-05-03T17:10:20.664Z,13.60
2019-05-03T17:12:47.366Z,13.50
2019-05-03T17:15:14.468Z,13.50
2019-05-03T17:17:40.936Z,13.50
2019-05-03T17:20:07.371Z,13.50
2019-05-03T17:22:34.503Z,13.50
2019-05-03T17:25:01.143Z,13.40
2019-05-03T17:27:27.445Z,13.40
2019-05-03T17:29:55.250Z,13.50
2019-05-03T17:32:21.789Z,13.40
2019-05-03T17:34:48.052Z,13.40
2019-05-03T17:37:14.394Z,13.50
2019-05-03T17:39:40.669Z,13.40
2019-05-03T17:42:07.006Z,13.40
2019-05-03T17:44:34.518Z,13.40
2019-05-03T17:47:00.878Z,13.30
2019-05-03T17:49:27.140Z,13.20
2019-05-03T17:51:55.335Z,13.20
2019-05-03T17:54:21.423Z,13.10
2019-05-03T17:56:47.720Z,13.00
2019-05-03T17:59:15.201Z,13.10
2019-05-03T18:01:41.674Z,13.10
2019-05-03T18:04:09.573Z,13.00
2019-05-03T18:06:36.184Z,13.00
2019-05-03T18:09:04.318Z,12.90
2019-05-03T18:11:34.575Z,13.00
2019-05-03T18:14:00.654Z,12.90
2019-05-03T18:16:26.933Z,12.90
2019-05-03T18:18:54.782Z,12.80
2019-05-03T18:21:21.217Z,12.80
2019-05-03T18:23:47.486Z,12.80
2019-05-03T18:26:14.396Z,12.80
2019-05-03T18:28:40.848Z,12.60
2019-05-03T18:31:08.747Z,12.70
2019-05-03T18:33:35.280Z,12.60
2019-05-03T18:36:01.544Z,12.70
2019-05-03T18:38:28.104Z,12.60
2019-05-03T18:40:55.315Z,12.50
2019-05-03T18:43:21.762Z,12.40
2019-05-03T18:45:48.007Z,12.50
2019-05-03T18:48:14.441Z,12.50
2019-05-03T18:50:40.768Z,12.40
2019-05-03T18:53:07.189Z,12.40
2019-05-03T18:55:34.427Z,12.40
2019-05-03T18:58:00.838Z,12.30
2019-05-03T19:00:27.119Z,12.30
2019-05-03T19:02:54.637Z,12.30
2019-05-03T19:05:21.119Z,12.30
2019-05-03T19:07:47.375Z,12.30
2019-05-03T19:10:15.355Z,12.30
2019-05-03T19:12:42.008Z,12.30
2019-05-03T19:15:08.321Z,12.20
2019-05-03T19:17:35.554Z,12.20
2019-05-03T19:20:01.985Z,12.10
2019-05-03T19:22:28.289Z,12.10
2019-05-03T19:24:54.665Z,12.10
2019-05-03T19:27:20.957Z,12.00
2019-05-03T19:29:47.248Z,12.00
2019-05-03T19:32:15.000Z,11.90
2019-05-03T19:34:48.458Z,12.00
2019-05-03T19:37:09.440Z,11.90
2019-05-03T19:39:35.755Z,11.90
2019-05-03T19:42:04.107Z,11.90
2019-05-03T19:44:30.383Z,11.90
2019-05-03T19:46:56.912Z,11.90
2019-05-03T19:49:24.682Z,11.90
2019-05-03T19:51:51.271Z,11.80
2019-05-03T19:54:17.571Z,11.80
2019-05-03T19:56:44.604Z,11.80
2019-05-03T19:59:11.850Z,11.70
2019-05-03T20:01:38.166Z,11.70
2019-05-03T20:04:06.018Z,11.60
2019-05-03T20:06:34.447Z,11.70
2019-05-03T20:09:03.113Z,11.70
2019-05-03T20:11:29.408Z,11.70
2019-05-03T20:13:55.691Z,11.60
2019-05-03T20:16:22.095Z,11.60
2019-05-03T20:18:48.410Z,11.50
2019-05-03T20:21:15.232Z,11.40
2019-05-03T20:23:41.910Z,11.40
2019-05-03T20:26:08.356Z,11.40
2019-05-03T20:28:35.448Z,11.40
2019-05-03T20:31:01.834Z,11.30
2019-05-03T20:33:28.098Z,11.30
2019-05-03T20:35:56.225Z,11.30
2019-05-03T20:38:24.602Z,11.20
2019-05-03T20:40:50.984Z,11.20
2019-05-03T20:43:17.381Z,11.20
2019-05-03T20:45:44.511Z,11.20
2019-05-03T20:48:11.065Z,11.10
2019-05-03T20:50:37.319Z,11.10
2019-05-03T20:53:05.377Z,11.10
2019-05-03T20:55:31.806Z,11.10
2019-05-03T20:57:58.082Z,11.10
2019-05-03T21:00:25.645Z,11.00
2019-05-03T21:02:57.298Z,11.00
2019-05-03T21:05:29.544Z,11.00
2019-05-03T21:07:51.405Z,11.00
2019-05-03T21:10:17.865Z,10.90
2019-05-03T21:12:44.118Z,10.90
2019-05-03T21:15:10.375Z,10.90
2019-05-03T21:17:36.998Z,10.90
2019-05-03T21:20:03.469Z,10.90
2019-05-03T21:22:29.770Z,10.90
2019-05-03T21:24:56.124Z,10.80
2019-05-03T21:27:24.545Z,10.90
2019-05-03T21:29:50.453Z,10.80
2019-05-03T21:32:17.155Z,10.70
2019-05-03T21:34:45.142Z,10.70
2019-05-03T21:37:11.576Z,10.70
2019-05-03T21:39:37.871Z,10.70
2019-05-03T21:42:04.710Z,10.70
2019-05-03T21:44:31.257Z,10.70
2019-05-03T21:46:57.614Z,10.70
2019-05-03T21:49:25.300Z,10.70
2019-05-03T21:51:53.589Z,10.60
2019-05-03T21:54:19.762Z,10.60
2019-05-03T21:56:46.047Z,10.60
2019-05-03T21:59:12.327Z,10.60
2019-05-03T22:01:38.609Z,10.60
2019-05-03T22:04:04.883Z,10.60
2019-05-03T22:06:31.199Z,10.60
2019-05-03T22:08:58.414Z,10.40
2019-05-03T22:11:25.258Z,10.40
2019-05-03T22:13:51.745Z,10.40
2019-05-03T22:16:20.115Z,10.30
2019-05-03T22:18:46.398Z,10.30
2019-05-03T22:21:12.691Z,10.30
2019-05-03T22:23:38.978Z,10.30
2019-05-03T22:26:05.280Z,10.30
2019-05-03T22:28:31.533Z,10.30
2019-05-03T22:30:57.834Z,10.20
2019-05-03T22:33:24.110Z,10.20
2019-05-03T22:35:50.409Z,10.20
2019-05-03T22:38:16.692Z,10.10
2019-05-03T22:40:44.282Z,10.10
2019-05-03T22:43:11.018Z,10.00
2019-05-03T22:45:37.491Z,9.90
2019-05-03T22:48:05.218Z,10.00
2019-05-03T22:50:31.763Z,10.00
2019-05-03T22:52:58.073Z,9.90
2019-05-03T22:55:24.663Z,9.90
2019-05-03T22:57:51.222Z,9.90
2019-05-03T23:00:17.491Z,9.80
2019-05-03T23:02:45.491Z,9.80
2019-05-03T23:05:11.778Z,9.80
2019-05-03T23:07:38.183Z,9.80
2019-05-03T23:10:04.438Z,9.80
2019-05-03T23:12:30.963Z,9.80
2019-05-03T23:14:58.104Z,9.80
2019-05-03T23:17:25.372Z,9.70
2019-05-03T23:19:51.861Z,9.70
2019-05-03T23:22:18.148Z,9.70
2019-05-03T23:24:44.391Z,9.70
2019-05-03T23:27:10.696Z,9.70
2019-05-03T23:29:37.000Z,9.60
2019-05-03T23:32:04.677Z,9.60
2019-05-03T23:34:31.237Z,9.60
2019-05-03T23:36:57.725Z,9.60
2019-05-03T23:39:24.896Z,9.50
2019-05-03T23:41:51.433Z,9.50
2019-05-03T23:44:17.706Z,9.50
2019-05-03T23:46:45.477Z,9.50
2019-05-03T23:49:11.970Z,9.50
2019-05-03T23:51:38.210Z,9.50
2019-05-03T23:54:05.515Z,9.60
2019-05-03T23:56:31.938Z,9.60
2019-05-03T23:58:58.221Z,9.50
